OOCL Nagoya — VRFX8 — position and weather

sailwx.info

Track history (hours):
 
Tides and Currents Weather Stations Pressure Air Temp Water Temp Dewpoint Dewpoint Depression Visibility Wind Speed Wind Dir Waves Ship Positions

OOCL Nagoya

Last reported at 2017-Nov-23 21:04 UTC. Time now 2017-Nov-24 03:56 UTC.
Position S 02°01' E 107°05'.

Length 261 m; draft 10 m.

Type: Cargo ship. MMSI: 477627900.

Date/timePositionNaut miles runAvg speedWind from/ knotsBaromVisibWave heightAir tempDewpointWater temp
2017-Nov-23 21:04S 02°01' E 107°05'116.1
2017-Nov-23 21:01S 02°02' E 107°05'  
2017-Nov-19 03:46N 01°16' E 104°11'312.4
2017-Nov-19 03:30N 01°15' E 104°08'611.9
2017-Nov-19 03:00N 01°14' E 104°02'611.4
2017-Nov-19 02:30N 01°13' E 103°57'611.1
2017-Nov-19 02:00N 01°11' E 103°51'3 6.9
2017-Nov-19 01:30N 01°13' E 103°48'3 6.3
2017-Nov-19 01:00N 01°16' E 103°48'0 0.5
2017-Nov-19 00:28N 01°16' E 103°48'0 0.0
2017-Nov-18 23:58N 01°16' E 103°48'0 0.0
2017-Nov-18 23:16N 01°16' E 103°48'0 0.0
2017-Nov-18 22:58N 01°16' E 103°48'0 0.0
2017-Nov-18 22:28N 01°16' E 103°48'0 0.0
2017-Nov-18 21:58N 01°16' E 103°48'0 0.0
2017-Nov-18 21:28N 01°16' E 103°48'0 0.0
2017-Nov-18 20:58N 01°16' E 103°48'0 0.0
2017-Nov-18 20:28N 01°16' E 103°48'0 0.0
2017-Nov-18 19:58N 01°16' E 103°48'0 0.0
2017-Nov-18 19:28N 01°16' E 103°48'0 0.0
2017-Nov-18 18:55N 01°16' E 103°48'0 0.0
2017-Nov-18 18:22N 01°16' E 103°48'0 0.0
2017-Nov-18 17:58N 01°16' E 103°48'0 0.0
2017-Nov-18 17:28N 01°16' E 103°48'0 0.0
2017-Nov-18 16:52N 01°16' E 103°48'0 0.0
2017-Nov-18 16:28N 01°16' E 103°48'0 0.0
2017-Nov-18 15:58N 01°16' E 103°48'0 0.0
2017-Nov-18 15:28N 01°16' E 103°48'0 0.0
2017-Nov-18 14:58N 01°16' E 103°48'0 0.0
2017-Nov-18 14:28N 01°16' E 103°48'0 0.0
2017-Nov-18 13:58N 01°16' E 103°48'0 0.0
2017-Nov-18 13:16N 01°16' E 103°48'0 0.1
2017-Nov-18 12:58N 01°16' E 103°48'0 0.0
2017-Nov-18 12:28N 01°16' E 103°48'0 0.0
2017-Nov-18 11:58N 01°16' E 103°48'0 0.0
2017-Nov-18 11:28N 01°16' E 103°48'0 0.0
2017-Nov-18 10:58N 01°16' E 103°48'0 0.0
2017-Nov-18 10:28N 01°16' E 103°48'0 0.0
2017-Nov-18 09:58N 01°16' E 103°48'0 0.0
2017-Nov-18 09:22N 01°16' E 103°48'0 0.5
2017-Nov-18 09:01N 01°16' E 103°48'2 3.4
2017-Nov-18 08:30N 01°14' E 103°47'3 6.4
2017-Nov-18 08:00N 01°12' E 103°50'4 8.9
2017-Nov-18 07:31N 01°14' E 103°54'3 5.1
2017-Nov-18 06:59N 01°15' E 103°57'3 6.8
2017-Nov-18 06:30N 01°16' E 103°60'3 7.0
2017-Nov-18 06:01N 01°16' E 104°03'4 6.8
2017-Nov-18 05:28N 01°16' E 104°07'3 6.4
2017-Nov-18 05:00N 01°17' E 104°10'3 6.7
2017-Nov-18 04:29N 01°18' E 104°13'42514.9
2017-Nov-17 00:00N 07°18' E 108°00'   050 / 141002.010.8 28.025.320.0
2017-Nov-14 17:06N 21°55' E 114°21'217.4
2017-Nov-14 16:59N 21°57' E 114°21'817.3
2017-Nov-14 16:30N 22°06' E 114°21'1415.0
2017-Nov-14 15:36N 22°13' E 114°09'1010.9
2017-Nov-14 14:43N 22°21' E 114°02'416.5
2017-Nov-14 14:28N 22°21' E 113°58'511.9
2017-Nov-14 14:00N 22°24' E 113°53'3 6.4
2017-Nov-14 13:30N 22°27' E 113°54'0 0.2
2017-Nov-14 13:00N 22°27' E 113°54'0 0.0
2017-Nov-14 12:30N 22°27' E 113°54'0 0.0
2017-Nov-14 12:00N 22°27' E 113°54'0 0.0
2017-Nov-14 11:30N 22°27' E 113°54'0 0.0
2017-Nov-14 11:00N 22°27' E 113°54'0 0.0
2017-Nov-14 10:30N 22°27' E 113°54'0 0.0
2017-Nov-14 10:00N 22°27' E 113°54'0 0.0
2017-Nov-14 09:30N 22°27' E 113°54'0 0.0
2017-Nov-14 09:00N 22°27' E 113°54'0 0.0
2017-Nov-14 08:30N 22°27' E 113°54'0 0.0
2017-Nov-14 08:00N 22°27' E 113°54'0 0.0
2017-Nov-14 07:30N 22°27' E 113°54'0 0.0
2017-Nov-14 07:00N 22°27' E 113°54'0 0.0
2017-Nov-14 06:30N 22°27' E 113°54'0 0.0
2017-Nov-14 06:00N 22°27' E 113°54'0 0.0
2017-Nov-14 05:30N 22°27' E 113°54'0 0.0
2017-Nov-14 05:00N 22°27' E 113°54'0 0.0
2017-Nov-14 04:30N 22°27' E 113°54'0 0.0
2017-Nov-14 04:00N 22°27' E 113°54'0 0.0
2017-Nov-14 03:30N 22°27' E 113°54'0 0.0
2017-Nov-14 03:00N 22°27' E 113°54'0 0.0
2017-Nov-14 02:30N 22°27' E 113°54'3 5.8
2017-Nov-14 02:00N 22°24' E 113°54'5 9.2
2017-Nov-14 01:31N 22°21' E 113°57'811.8
2017-Nov-14 00:50N 22°19' E 114°05'2 5.8
2017-Nov-14 00:29N 22°21' E 114°07'  
Track history (hours):
 
Tides and Currents Weather Stations Pressure Air Temp Water Temp Dewpoint Dewpoint Depression Visibility Wind Speed Wind Dir Waves Ship Positions

OOCL Nagoya

Last reported at 2017-Nov-23 21:04 UTC. Time now 2017-Nov-24 03:56 UTC.
Position S 02°01' E 107°05'.

Length 261 m; draft 10 m.

Type: Cargo ship. MMSI: 477627900.

Date/timePositionNaut miles runAvg speedWind from/ knotsBaromVisibWave heightAir tempDewpointWater temp
2017-Nov-23 21:04S 02°01' E 107°05'116.1
2017-Nov-23 21:01S 02°02' E 107°05'  
2017-Nov-19 03:46N 01°16' E 104°11'312.4
2017-Nov-19 03:30N 01°15' E 104°08'611.9
2017-Nov-19 03:00N 01°14' E 104°02'611.4
2017-Nov-19 02:30N 01°13' E 103°57'611.1
2017-Nov-19 02:00N 01°11' E 103°51'3 6.9
2017-Nov-19 01:30N 01°13' E 103°48'3 6.3
2017-Nov-19 01:00N 01°16' E 103°48'0 0.5
2017-Nov-19 00:28N 01°16' E 103°48'0 0.0
2017-Nov-18 23:58N 01°16' E 103°48'0 0.0
2017-Nov-18 23:16N 01°16' E 103°48'0 0.0
2017-Nov-18 22:58N 01°16' E 103°48'0 0.0
2017-Nov-18 22:28N 01°16' E 103°48'0 0.0
2017-Nov-18 21:58N 01°16' E 103°48'0 0.0
2017-Nov-18 21:28N 01°16' E 103°48'0 0.0
2017-Nov-18 20:58N 01°16' E 103°48'0 0.0
2017-Nov-18 20:28N 01°16' E 103°48'0 0.0
2017-Nov-18 19:58N 01°16' E 103°48'0 0.0
2017-Nov-18 19:28N 01°16' E 103°48'0 0.0
2017-Nov-18 18:55N 01°16' E 103°48'0 0.0
2017-Nov-18 18:22N 01°16' E 103°48'0 0.0
2017-Nov-18 17:58N 01°16' E 103°48'0 0.0
2017-Nov-18 17:28N 01°16' E 103°48'0 0.0
2017-Nov-18 16:52N 01°16' E 103°48'0 0.0
2017-Nov-18 16:28N 01°16' E 103°48'0 0.0
2017-Nov-18 15:58N 01°16' E 103°48'0 0.0
2017-Nov-18 15:28N 01°16' E 103°48'0 0.0
2017-Nov-18 14:58N 01°16' E 103°48'0 0.0
2017-Nov-18 14:28N 01°16' E 103°48'0 0.0
2017-Nov-18 13:58N 01°16' E 103°48'0 0.0
2017-Nov-18 13:16N 01°16' E 103°48'0 0.1
2017-Nov-18 12:58N 01°16' E 103°48'0 0.0
2017-Nov-18 12:28N 01°16' E 103°48'0 0.0
2017-Nov-18 11:58N 01°16' E 103°48'0 0.0
2017-Nov-18 11:28N 01°16' E 103°48'0 0.0
2017-Nov-18 10:58N 01°16' E 103°48'0 0.0
2017-Nov-18 10:28N 01°16' E 103°48'0 0.0
2017-Nov-18 09:58N 01°16' E 103°48'0 0.0
2017-Nov-18 09:22N 01°16' E 103°48'0 0.5
2017-Nov-18 09:01N 01°16' E 103°48'2 3.4
2017-Nov-18 08:30N 01°14' E 103°47'3 6.4
2017-Nov-18 08:00N 01°12' E 103°50'4 8.9
2017-Nov-18 07:31N 01°14' E 103°54'3 5.1
2017-Nov-18 06:59N 01°15' E 103°57'3 6.8
2017-Nov-18 06:30N 01°16' E 103°60'3 7.0
2017-Nov-18 06:01N 01°16' E 104°03'4 6.8
2017-Nov-18 05:28N 01°16' E 104°07'3 6.4
2017-Nov-18 05:00N 01°17' E 104°10'3 6.7
2017-Nov-18 04:29N 01°18' E 104°13'42514.9
2017-Nov-17 00:00N 07°18' E 108°00'   050 / 141002.010.8 28.025.320.0
2017-Nov-14 17:06N 21°55' E 114°21'217.4
2017-Nov-14 16:59N 21°57' E 114°21'817.3
2017-Nov-14 16:30N 22°06' E 114°21'1415.0
2017-Nov-14 15:36N 22°13' E 114°09'1010.9
2017-Nov-14 14:43N 22°21' E 114°02'416.5
2017-Nov-14 14:28N 22°21' E 113°58'511.9
2017-Nov-14 14:00N 22°24' E 113°53'3 6.4
2017-Nov-14 13:30N 22°27' E 113°54'0 0.2
2017-Nov-14 13:00N 22°27' E 113°54'0 0.0
2017-Nov-14 12:30N 22°27' E 113°54'0 0.0
2017-Nov-14 12:00N 22°27' E 113°54'0 0.0
2017-Nov-14 11:30N 22°27' E 113°54'0 0.0
2017-Nov-14 11:00N 22°27' E 113°54'0 0.0
2017-Nov-14 10:30N 22°27' E 113°54'0 0.0
2017-Nov-14 10:00N 22°27' E 113°54'0 0.0
2017-Nov-14 09:30N 22°27' E 113°54'0 0.0
2017-Nov-14 09:00N 22°27' E 113°54'0 0.0
2017-Nov-14 08:30N 22°27' E 113°54'0 0.0
2017-Nov-14 08:00N 22°27' E 113°54'0 0.0
2017-Nov-14 07:30N 22°27' E 113°54'0 0.0
2017-Nov-14 07:00N 22°27' E 113°54'0 0.0
2017-Nov-14 06:30N 22°27' E 113°54'0 0.0
2017-Nov-14 06:00N 22°27' E 113°54'0 0.0
2017-Nov-14 05:30N 22°27' E 113°54'0 0.0
2017-Nov-14 05:00N 22°27' E 113°54'0 0.0
2017-Nov-14 04:30N 22°27' E 113°54'0 0.0
2017-Nov-14 04:00N 22°27' E 113°54'0 0.0
2017-Nov-14 03:30N 22°27' E 113°54'0 0.0
2017-Nov-14 03:00N 22°27' E 113°54'0 0.0
2017-Nov-14 02:30N 22°27' E 113°54'3 5.8
2017-Nov-14 02:00N 22°24' E 113°54'5 9.2
2017-Nov-14 01:31N 22°21' E 113°57'811.8
2017-Nov-14 00:50N 22°19' E 114°05'2 5.8
2017-Nov-14 00:29N 22°21' E 114°07'  

Dump ship's entire track history